Time;durP1;ratioP1;P1;durP2;ratioP2;P2;SDS_P1;SDS_P2;PMS_P1;PMS_P2;Temp;Humidity;BMP_temperature;BMP_pressure;BME280_temperature;BME280_humidity;BME280_pressure;Samples;Min_cycle;Max_cycle;Signal;HPM_P1;HPM_P2
2022/08/25 00:01:37;;;;;;;4.10;2.92;;;19.20;99.90;;;;;;5010146;28;20175;-28
2022/08/25 00:04:07;;;;;;;3.30;3.00;;;19.20;99.90;;;;;;4993589;28;20222;-28
2022/08/25 00:06:33;;;;;;;3.83;3.28;;;19.10;99.90;;;;;;4993330;28;20205;-28
2022/08/25 00:08:58;;;;;;;3.65;3.10;;;19.10;99.90;;;;;;4993554;28;20211;-28
2022/08/25 00:11:29;;;;;;;3.30;3.00;;;19.00;99.90;;;;;;5009922;28;20175;-28
2022/08/25 00:14:02;;;;;;;3.17;2.97;;;19.00;99.90;;;;;;4993632;28;20242;-27
2022/08/25 00:16:30;;;;;;;3.40;3.10;;;18.90;99.90;;;;;;4993473;28;20190;-32
2022/08/25 00:18:58;;;;;;;3.75;3.45;;;18.80;99.90;;;;;;4993258;28;20197;-29
2022/08/25 00:21:25;;;;;;;3.70;3.40;;;18.80;99.90;;;;;;4993071;28;20287;-27
2022/08/25 00:23:51;;;;;;;3.60;3.30;;;18.70;99.90;;;;;;4992889;28;20222;-30
2022/08/25 00:26:18;;;;;;;3.45;3.15;;;18.70;99.90;;;;;;5010071;28;20175;-28
2022/08/25 00:28:44;;;;;;;3.72;3.25;;;18.70;99.90;;;;;;5010730;28;20199;-27
2022/08/25 00:31:13;;;;;;;3.83;3.28;;;18.60;99.90;;;;;;5010996;28;20256;-28
2022/08/25 00:33:39;;;;;;;3.30;3.00;;;18.60;99.90;;;;;;4992994;28;20194;-30
2022/08/25 00:36:05;;;;;;;3.60;3.30;;;18.60;99.90;;;;;;4993425;28;20192;-31
2022/08/25 00:38:31;;;;;;;4.82;3.25;;;18.50;99.90;;;;;;5009227;28;20226;-30
2022/08/25 00:41:06;;;;;;;3.28;3.08;;;18.50;99.90;;;;;;5011021;28;20179;-27
2022/08/25 00:43:40;;;;;;;3.67;3.38;;;18.50;99.90;;;;;;5009589;28;20201;-28
2022/08/25 00:46:11;;;;;;;3.17;2.90;;;18.50;99.90;;;;;;5009437;28;20182;-29
2022/08/25 00:48:40;;;;;;;3.67;3.38;;;18.40;99.90;;;;;;4992939;28;20542;-29
2022/08/25 00:51:08;;;;;;;3.88;3.28;;;18.40;99.90;;;;;;5009521;28;20180;-27
2022/08/25 00:53:34;;;;;;;4.40;3.42;;;18.40;99.90;;;;;;4993054;28;20199;-28
2022/08/25 00:56:00;;;;;;;4.07;3.78;;;18.40;99.90;;;;;;4993152;28;20186;-28
2022/08/25 00:58:30;;;;;;;3.50;3.20;;;18.30;99.90;;;;;;5009181;28;20183;-28
2022/08/25 01:00:57;;;;;;;4.00;3.60;;;18.30;99.90;;;;;;5009298;28;20190;-28
2022/08/25 01:03:26;;;;;;;3.70;3.42;;;18.30;99.90;;;;;;5009256;28;20227;-28
2022/08/25 01:05:53;;;;;;;3.60;3.30;;;18.30;99.90;;;;;;4992977;28;20293;-28
2022/08/25 01:08:26;;;;;;;3.85;3.30;;;18.30;99.90;;;;;;5008991;28;20180;-27
2022/08/25 01:10:53;;;;;;;3.80;3.50;;;18.30;99.90;;;;;;4993294;28;20202;-27
2022/08/25 01:13:31;;;;;;;4.10;3.70;;;18.20;99.90;;;;;;4992642;28;20253;-28
2022/08/25 01:15:58;;;;;;;3.45;3.15;;;18.20;99.90;;;;;;5009131;28;20186;-28
2022/08/25 01:18:26;;;;;;;3.90;3.50;;;18.20;99.90;;;;;;4992605;28;20183;-28
2022/08/25 01:20:53;;;;;;;3.92;3.63;;;18.20;99.90;;;;;;4992950;28;20235;-29
2022/08/25 01:23:21;;;;;;;4.25;3.90;;;18.10;99.90;;;;;;5009049;28;20222;-28
2022/08/25 01:26:02;;;;;;;4.43;3.85;;;18.10;99.90;;;;;;5009062;28;20190;-29
2022/08/25 01:28:28;;;;;;;4.43;4.03;;;17.90;99.90;;;;;;5008676;28;20183;-28
2022/08/25 01:30:54;;;;;;;4.13;3.30;;;17.90;99.90;;;;;;4993009;28;20172;-28
2022/08/25 01:33:20;;;;;;;5.07;3.60;;;17.80;99.90;;;;;;5009100;28;20208;-28
2022/08/25 01:35:47;;;;;;;3.90;3.60;;;17.80;99.90;;;;;;4995849;28;20183;-28
2022/08/25 01:38:13;;;;;;;5.03;3.63;;;17.80;99.90;;;;;;4995658;28;20263;-28
2022/08/25 01:40:40;;;;;;;3.80;3.50;;;17.80;99.90;;;;;;4996187;28;20203;-29
2022/08/25 01:43:13;;;;;;;3.83;3.53;;;17.80;99.90;;;;;;5012195;28;20203;-28
2022/08/25 01:45:44;;;;;;;4.93;3.87;;;17.80;99.90;;;;;;5014252;28;20175;-28
2022/08/25 01:48:11;;;;;;;4.47;4.07;;;17.70;99.90;;;;;;4996172;28;20181;-29
2022/08/25 01:50:38;;;;;;;4.85;3.90;;;17.70;99.90;;;;;;4995888;28;20203;-29
2022/08/25 01:53:27;;;;;;;4.18;3.78;;;17.70;99.90;;;;;;5013235;28;20665;-28
2022/08/25 01:56:00;;;;;;;3.87;3.53;;;17.70;99.90;;;;;;4995722;28;20278;-28
2022/08/25 01:58:39;;;;;;;5.50;3.90;;;17.70;99.90;;;;;;5011197;28;20222;-30
2022/08/25 02:01:10;;;;;;;4.00;3.70;;;17.70;99.90;;;;;;4995470;28;20179;-30
2022/08/25 02:03:37;;;;;;;4.38;3.60;;;17.70;99.90;;;;;;5013374;28;20201;-29
2022/08/25 02:06:03;;;;;;;4.33;3.93;;;17.60;99.90;;;;;;5011986;28;20182;-28
2022/08/25 02:08:29;;;;;;;3.83;3.53;;;17.60;99.90;;;;;;5011852;28;20183;-29
2022/08/25 02:10:55;;;;;;;3.97;3.67;;;17.50;99.90;;;;;;4995775;28;20171;-29
2022/08/25 02:13:22;;;;;;;4.50;3.50;;;17.50;99.90;;;;;;4995727;28;20288;-27
2022/08/25 02:15:53;;;;;;;3.90;3.60;;;17.50;99.90;;;;;;5011773;28;20199;-29
2022/08/25 02:18:19;;;;;;;4.80;3.77;;;17.40;99.90;;;;;;4995375;28;20247;-28
2022/08/25 02:20:45;;;;;;;4.20;3.90;;;17.40;99.90;;;;;;4995660;28;20235;-28
2022/08/25 02:23:12;;;;;;;4.27;3.97;;;17.40;99.90;;;;;;5012272;28;20215;-27
2022/08/25 02:25:39;;;;;;;4.43;3.90;;;17.40;99.90;;;;;;5011776;28;20196;-28
2022/08/25 02:28:07;;;;;;;4.27;3.40;;;17.50;99.90;;;;;;5011477;28;20181;-27
2022/08/25 02:30:33;;;;;;;4.40;4.00;;;17.50;99.90;;;;;;5011256;28;20652;-28
2022/08/25 02:32:59;;;;;;;3.97;3.60;;;17.40;99.90;;;;;;4995182;28;20686;-28
2022/08/25 02:35:25;;;;;;;5.40;3.80;;;17.40;99.90;;;;;;5011591;28;20213;-28
2022/08/25 02:37:52;;;;;;;4.53;4.10;;;17.40;99.90;;;;;;5012614;28;20195;-28
2022/08/25 02:40:20;;;;;;;4.00;3.70;;;17.30;99.90;;;;;;5012810;28;20202;-28
2022/08/25 02:42:50;;;;;;;5.10;4.10;;;17.20;99.90;;;;;;5011196;28;20254;-30
2022/08/25 02:45:17;;;;;;;4.30;3.90;;;17.10;99.90;;;;;;5010988;28;20281;-29
2022/08/25 02:47:44;;;;;;;5.30;3.70;;;17.10;99.90;;;;;;5010867;28;20191;-28
2022/08/25 02:50:10;;;;;;;4.63;4.20;;;17.10;99.90;;;;;;4994978;28;20273;-29
2022/08/25 02:52:37;;;;;;;4.50;4.10;;;17.10;99.90;;;;;;5011204;28;20206;-27
2022/08/25 02:55:06;;;;;;;4.40;4.00;;;17.00;99.90;;;;;;4994957;28;20188;-29
2022/08/25 02:57:31;;;;;;;7.17;4.13;;;17.00;99.90;;;;;;4994170;28;20250;-29
2022/08/25 02:59:58;;;;;;;4.20;3.80;;;16.90;99.90;;;;;;5010828;28;20191;-30
2022/08/25 03:02:26;;;;;;;5.60;4.00;;;17.00;99.90;;;;;;5010948;28;20211;-30
2022/08/25 03:04:53;;;;;;;4.10;3.70;;;17.00;99.90;;;;;;5010936;28;20212;-28
2022/08/25 03:07:19;;;;;;;4.37;3.97;;;16.90;99.90;;;;;;4994521;28;20206;-27
2022/08/25 03:09:46;;;;;;;3.70;3.40;;;16.90;99.90;;;;;;4994070;28;20286;-29
2022/08/25 03:12:11;;;;;;;4.07;3.67;;;16.90;99.90;;;;;;5010614;28;20183;-29
2022/08/25 03:14:39;;;;;;;4.40;3.97;;;16.90;99.90;;;;;;5010733;28;20278;-29
2022/08/25 03:17:06;;;;;;;5.43;4.00;;;16.80;99.90;;;;;;4994133;28;20194;-28
2022/08/25 03:19:32;;;;;;;4.47;4.00;;;16.80;99.90;;;;;;4994442;28;20213;-28
2022/08/25 03:21:58;;;;;;;5.10;3.70;;;16.80;99.90;;;;;;4994343;28;20230;-28
2022/08/25 03:24:25;;;;;;;4.40;4.00;;;16.80;99.90;;;;;;4993964;28;20240;-28
2022/08/25 03:26:54;;;;;;;4.40;3.57;;;16.80;99.90;;;;;;4993791;28;20191;-28
2022/08/25 03:29:25;;;;;;;4.70;3.63;;;16.80;99.90;;;;;;4994114;28;20257;-29
2022/08/25 03:31:53;;;;;;;4.43;4.03;;;16.70;99.90;;;;;;5010586;28;20284;-30
2022/08/25 03:34:21;;;;;;;4.10;3.80;;;16.70;99.90;;;;;;5010359;28;20693;-30
2022/08/25 03:36:49;;;;;;;4.80;4.40;;;16.70;99.90;;;;;;4993793;28;20182;-29
2022/08/25 03:39:17;;;;;;;4.27;3.83;;;16.60;99.90;;;;;;4993873;28;20183;-28
2022/08/25 03:41:43;;;;;;;4.50;3.93;;;16.60;99.90;;;;;;4994000;28;20215;-28
2022/08/25 03:44:09;;;;;;;6.17;4.30;;;16.60;99.90;;;;;;4993957;28;20215;-29
2022/08/25 03:46:47;;;;;;;4.80;4.30;;;16.50;99.90;;;;;;5010101;28;20191;-30
2022/08/25 03:49:18;;;;;;;5.10;4.60;;;16.50;99.90;;;;;;5010388;28;20206;-28
2022/08/25 03:51:46;;;;;;;5.50;4.77;;;16.60;99.90;;;;;;5010186;28;20707;-28
2022/08/25 03:54:18;;;;;;;5.50;5.00;;;16.50;99.90;;;;;;5010109;28;20213;-30
2022/08/25 03:56:44;;;;;;;5.70;5.20;;;16.60;99.90;;;;;;4992973;28;20705;-28
2022/08/25 03:59:11;;;;;;;5.53;4.73;;;16.60;99.90;;;;;;4993728;28;20191;-29
2022/08/25 04:01:38;;;;;;;5.20;4.80;;;16.70;99.90;;;;;;5009566;28;20210;-27
2022/08/25 04:04:06;;;;;;;5.10;4.60;;;16.70;99.90;;;;;;5009607;28;20302;-30
2022/08/25 04:06:32;;;;;;;7.07;4.83;;;16.60;99.90;;;;;;5009868;28;20190;-29
2022/08/25 04:08:58;;;;;;;5.33;4.83;;;16.60;99.90;;;;;;5009702;28;20206;-29
2022/08/25 04:11:26;;;;;;;5.13;4.63;;;16.70;99.90;;;;;;5009880;28;20179;-28
2022/08/25 04:13:56;;;;;;;5.03;3.93;;;16.70;99.90;;;;;;4993545;28;20196;-27
2022/08/25 04:16:26;;;;;;;4.27;3.87;;;16.70;99.90;;;;;;5010376;28;20193;-29
2022/08/25 04:18:55;;;;;;;4.60;4.20;;;16.60;99.90;;;;;;5009487;28;20176;-28
2022/08/25 04:21:22;;;;;;;5.03;4.47;;;16.60;99.90;;;;;;5009657;28;20198;-28
2022/08/25 04:23:49;;;;;;;5.37;4.87;;;16.50;99.90;;;;;;5010929;28;20199;-28
2022/08/25 04:26:19;;;;;;;4.70;4.30;;;16.40;99.90;;;;;;5009595;28;20186;-28
2022/08/25 04:28:46;;;;;;;4.23;3.87;;;16.40;99.90;;;;;;5010887;28;20175;-29
2022/08/25 04:31:13;;;;;;;4.20;3.80;;;16.30;99.90;;;;;;4993075;28;20180;-30
2022/08/25 04:33:40;;;;;;;4.77;4.37;;;16.30;99.90;;;;;;5009334;28;20207;-29
2022/08/25 04:36:10;;;;;;;5.27;4.70;;;16.10;99.90;;;;;;4993057;28;20183;-28
2022/08/25 04:38:37;;;;;;;6.50;4.60;;;16.10;99.90;;;;;;4993018;28;20186;-29
2022/08/25 04:41:05;;;;;;;4.80;4.30;;;16.00;99.90;;;;;;5010912;28;20183;-28
2022/08/25 04:43:32;;;;;;;5.07;4.27;;;16.00;99.90;;;;;;4993206;28;20209;-29
2022/08/25 04:45:59;;;;;;;5.40;3.93;;;16.00;99.90;;;;;;5009386;28;20198;-29
2022/08/25 04:48:25;;;;;;;5.20;4.30;;;16.00;99.90;;;;;;4993001;28;20213;-29
2022/08/25 04:50:51;;;;;;;6.00;4.73;;;16.10;99.90;;;;;;4993108;28;20265;-28
2022/08/25 04:53:17;;;;;;;5.50;4.13;;;16.10;99.90;;;;;;4993239;28;20242;-29
2022/08/25 04:55:45;;;;;;;5.23;4.23;;;16.10;99.90;;;;;;5009391;28;20207;-27
2022/08/25 04:58:12;;;;;;;5.23;4.73;;;16.10;99.90;;;;;;5009022;28;20179;-29
2022/08/25 05:00:38;;;;;;;5.30;4.80;;;16.10;99.90;;;;;;5009252;28;20183;-29
2022/08/25 05:03:05;;;;;;;5.03;4.60;;;16.10;99.90;;;;;;4992587;28;20203;-29
2022/08/25 05:05:34;;;;;;;5.77;5.10;;;16.10;99.90;;;;;;5010916;28;20293;-28
2022/08/25 05:08:00;;;;;;;8.87;4.60;;;16.10;99.90;;;;;;5009666;28;20262;-29
2022/08/25 05:10:26;;;;;;;6.73;4.80;;;16.20;99.90;;;;;;4996765;28;20265;-28
2022/08/25 05:12:52;;;;;;;5.43;4.93;;;16.20;99.90;;;;;;5012790;28;20210;-29
2022/08/25 05:18:02;;;;;;;5.80;4.77;;;16.20;99.90;;;;;;5012860;28;20186;-28
2022/08/25 05:20:29;;;;;;;6.33;5.30;;;16.20;99.90;;;;;;5014362;28;20175;-28
2022/08/25 05:22:56;;;;;;;5.53;5.03;;;16.30;99.90;;;;;;5012830;28;20215;-29
2022/08/25 05:25:23;;;;;;;6.47;5.30;;;16.40;99.90;;;;;;4996464;28;20189;-29
2022/08/25 05:27:49;;;;;;;5.60;5.00;;;16.50;99.90;;;;;;4996231;28;20192;-30
2022/08/25 05:30:15;;;;;;;5.83;5.33;;;16.60;99.90;;;;;;5012577;28;20211;-30
2022/08/25 05:32:41;;;;;;;5.20;4.63;;;16.70;99.90;;;;;;4996342;28;20198;-29
2022/08/25 05:35:07;;;;;;;6.17;4.43;;;16.80;99.90;;;;;;5012556;28;20179;-29
2022/08/25 05:37:33;;;;;;;5.10;4.60;;;16.80;99.90;;;;;;4996103;28;20180;-30
2022/08/25 05:39:59;;;;;;;6.37;4.80;;;16.80;99.90;;;;;;5012214;28;20257;-29
2022/08/25 05:42:27;;;;;;;6.87;4.80;;;16.90;99.90;;;;;;5012496;28;20274;-30
2022/08/25 05:44:54;;;;;;;5.17;4.67;;;17.00;99.90;;;;;;4996056;28;20183;-30
2022/08/25 05:47:20;;;;;;;5.80;5.03;;;17.10;99.90;;;;;;4995989;28;20186;-29
2022/08/25 05:49:46;;;;;;;5.43;4.93;;;17.10;99.90;;;;;;5013645;28;20207;-30
2022/08/25 05:52:12;;;;;;;6.30;4.70;;;17.20;99.90;;;;;;4995896;28;20265;-29
2022/08/25 05:54:38;;;;;;;5.53;4.70;;;17.30;99.90;;;;;;4995414;28;20199;-29
2022/08/25 05:57:05;;;;;;;4.87;4.47;;;17.30;99.90;;;;;;4995607;28;20187;-29
2022/08/25 05:59:32;;;;;;;6.40;4.57;;;17.40;99.90;;;;;;5012178;28;20242;-30
2022/08/25 06:04:42;;;;;;;6.23;5.33;;;17.50;99.90;;;;;;5012305;28;20222;-30
2022/08/25 06:07:09;;;;;;;5.77;5.17;;;17.60;99.90;;;;;;5011464;28;20229;-30
2022/08/25 06:09:38;;;;;;;5.37;4.87;;;17.60;99.90;;;;;;4995455;28;20210;-29
2022/08/25 06:12:04;;;;;;;7.20;5.40;;;17.70;99.90;;;;;;5011901;28;20207;-30
2022/08/25 06:14:30;;;;;;;5.93;5.33;;;17.80;99.90;;;;;;4995459;28;20213;-30
2022/08/25 06:16:56;;;;;;;7.20;5.18;;;17.90;99.90;;;;;;4995338;28;20190;-29
2022/08/25 06:19:22;;;;;;;6.07;5.57;;;18.00;99.90;;;;;;5012842;28;20179;-30
2022/08/25 06:21:48;;;;;;;6.13;5.50;;;18.10;99.90;;;;;;4994877;28;20194;-31
2022/08/25 06:24:14;;;;;;;6.63;5.68;;;18.20;99.90;;;;;;5011457;28;20285;-30
2022/08/25 06:26:40;;;;;;;5.63;5.13;;;18.20;99.90;;;;;;4995148;28;20274;-29
2022/08/25 06:29:06;;;;;;;5.50;5.00;;;18.30;99.90;;;;;;4995416;28;20294;-31
2022/08/25 06:31:32;;;;;;;5.80;5.20;;;18.40;99.90;;;;;;5011727;28;20190;-30
2022/08/25 06:33:59;;;;;;;5.88;5.28;;;18.40;99.90;;;;;;5010951;28;20195;-31
2022/08/25 06:36:24;;;;;;;6.25;5.28;;;18.60;99.90;;;;;;5011306;28;20190;-31
2022/08/25 06:38:51;;;;;;;5.47;4.97;;;18.70;99.90;;;;;;5012376;28;20183;-31
2022/08/25 06:41:17;;;;;;;5.93;5.30;;;18.80;99.90;;;;;;4995013;28;20184;-30
2022/08/25 06:43:44;;;;;;;7.03;5.25;;;19.00;99.90;;;;;;5011309;28;20214;-31
2022/08/25 06:46:15;;;;;;;5.60;5.13;;;19.10;99.90;;;;;;4995040;28;20218;-30
2022/08/25 06:48:41;;;;;;;5.50;5.00;;;19.30;99.90;;;;;;4993826;28;20182;-30
2022/08/25 06:51:09;;;;;;;5.30;4.80;;;19.40;99.90;;;;;;5011222;28;20642;-31
2022/08/25 06:53:36;;;;;;;6.18;4.82;;;19.50;99.90;;;;;;5011026;28;20233;-30
2022/08/25 06:56:03;;;;;;;7.32;5.32;;;19.60;99.90;;;;;;4994798;28;20187;-31
2022/08/25 06:58:29;;;;;;;5.47;4.97;;;19.80;99.90;;;;;;5010540;28;20241;-30
2022/08/25 07:00:55;;;;;;;5.80;5.20;;;19.80;99.90;;;;;;5011134;28;20187;-30
2022/08/25 07:03:21;;;;;;;5.35;4.70;;;19.90;99.90;;;;;;4994547;28;20199;-30
2022/08/25 07:05:51;;;;;;;5.55;4.38;;;20.00;99.90;;;;;;4994674;28;20237;-30
2022/08/25 07:08:18;;;;;;;5.45;4.95;;;20.10;99.90;;;;;;4994407;28;20215;-31
2022/08/25 07:10:44;;;;;;;6.18;4.63;;;20.20;99.90;;;;;;5010703;28;20219;-30
2022/08/25 07:13:09;;;;;;;6.00;4.82;;;20.20;99.90;;;;;;4994582;28;20195;-30
2022/08/25 07:15:40;;;;;;;8.10;5.15;;;20.40;99.90;;;;;;4994770;28;20194;-30
2022/08/25 07:18:07;;;;;;;5.75;4.80;;;20.40;99.90;;;;;;5010297;28;20206;-29
2022/08/25 07:20:34;;;;;;;7.57;5.20;;;20.50;99.90;;;;;;5010875;28;20229;-30
2022/08/25 07:23:00;;;;;;;6.57;4.22;;;20.70;99.90;;;;;;5010588;28;20238;-30
2022/08/25 07:25:26;;;;;;;6.90;4.07;;;20.70;99.90;;;;;;5010627;28;20218;-30
2022/08/25 07:27:53;;;;;;;5.85;5.15;;;20.90;99.90;;;;;;4993928;28;20214;-30
2022/08/25 07:30:19;;;;;;;5.90;4.32;;;21.10;99.90;;;;;;4993910;28;20211;-30
2022/08/25 07:32:45;;;;;;;5.55;4.53;;;21.20;99.90;;;;;;4993935;28;20204;-30
2022/08/25 07:35:14;;;;;;;5.93;4.38;;;21.30;99.90;;;;;;4993609;28;20180;-30
2022/08/25 07:37:45;;;;;;;7.07;4.60;;;21.40;99.90;;;;;;5010220;28;20187;-30
2022/08/25 07:40:14;;;;;;;5.45;4.50;;;21.50;99.90;;;;;;4994115;28;20183;-30
2022/08/25 07:42:41;;;;;;;6.32;4.70;;;21.60;99.90;;;;;;4993983;28;20265;-30
2022/08/25 07:45:09;;;;;;;4.45;4.05;;;21.70;99.90;;;;;;5010369;28;20197;-30
2022/08/25 07:47:35;;;;;;;5.20;4.70;;;21.90;99.90;;;;;;5009547;28;20213;-30
2022/08/25 07:50:01;;;;;;;5.82;5.22;;;22.00;99.90;;;;;;5010201;28;20748;-30
2022/08/25 07:52:27;;;;;;;6.07;5.45;;;22.00;99.90;;;;;;4993861;28;20183;-30
2022/08/25 07:54:53;;;;;;;5.28;4.75;;;22.10;99.90;;;;;;5010146;28;20182;-30
2022/08/25 07:57:21;;;;;;;4.97;4.47;;;22.20;99.90;;;;;;4993672;28;20536;-31
2022/08/25 07:59:47;;;;;;;5.40;4.90;;;22.40;99.90;;;;;;4993588;28;20210;-30
2022/08/25 08:02:13;;;;;;;5.53;5.03;;;22.60;99.90;;;;;;4993486;28;20187;-31
2022/08/25 08:04:41;;;;;;;6.05;4.78;;;22.70;99.90;;;;;;4993529;28;20207;-31
2022/08/25 08:07:06;;;;;;;4.90;4.40;;;22.80;99.90;;;;;;4993361;28;20183;-31
2022/08/25 08:09:32;;;;;;;5.45;4.95;;;23.00;99.90;;;;;;4993608;28;20269;-31
2022/08/25 08:11:59;;;;;;;6.93;5.40;;;23.20;99.90;;;;;;5009894;28;20199;-30
2022/08/25 08:14:25;;;;;;;10.73;4.78;;;23.30;99.90;;;;;;5009825;28;20221;-31
2022/08/25 08:16:52;;;;;;;5.10;4.70;;;23.50;99.90;;;;;;4992992;28;20187;-31
2022/08/25 08:19:19;;;;;;;6.22;5.28;;;23.70;99.90;;;;;;4993532;28;20175;-31
2022/08/25 08:21:45;;;;;;;5.93;5.32;;;23.80;99.90;;;;;;5009904;28;20179;-32
2022/08/25 08:24:11;;;;;;;5.80;4.75;;;24.00;99.90;;;;;;5091743;23;20230;-34
2022/08/25 08:26:37;;;;;;;5.60;5.10;;;24.10;99.90;;;;;;5028643;28;20197;-35
2022/08/25 08:29:02;;;;;;;5.72;5.22;;;24.30;99.90;;;;;;5028860;28;20179;-34
2022/08/25 08:31:28;;;;;;;5.45;4.97;;;24.50;99.90;;;;;;5029624;28;20174;-33
2022/08/25 08:33:56;;;;;;;5.25;4.75;;;24.70;99.90;;;;;;5026362;28;20195;-33
2022/08/25 08:36:24;;;;;;;5.50;5.00;;;24.90;99.90;;;;;;5009864;28;20568;-34
2022/08/25 08:38:49;;;;;;;6.38;5.60;;;24.90;99.90;;;;;;5009726;28;20237;-34
2022/08/25 08:44:59;;;;;;;6.15;5.20;;;25.20;99.90;;;;;;5014055;28;20257;-35
2022/08/25 08:47:44;;;;;;;7.05;5.10;;;25.40;99.90;;;;;;4967345;28;20183;-35
2022/08/25 08:50:20;;;;;;;6.07;5.30;;;25.60;99.90;;;;;;5013747;28;20214;-35
2022/08/25 08:53:09;;;;;;;6.28;5.47;;;25.80;99.90;;;;;;5013803;28;20202;-33
2022/08/25 08:55:40;;;;;;;5.80;5.13;;;25.90;99.90;;;;;;5013448;28;20171;-35
2022/08/25 08:58:46;;;;;;;5.75;4.72;;;26.10;99.90;;;;;;5013272;28;20187;-32
2022/08/25 09:01:24;;;;;;;5.88;5.28;;;26.00;99.90;;;;;;5013605;28;20190;-35
2022/08/25 09:04:16;;;;;;;5.88;5.38;;;26.00;99.90;;;;;;5013540;28;20211;-34
2022/08/25 09:06:46;;;;;;;6.28;5.10;;;26.10;99.90;;;;;;4988500;28;20252;-35
2022/08/25 09:09:17;;;;;;;5.32;4.82;;;26.10;99.90;;;;;;5013312;28;20211;-35
2022/08/25 09:11:52;;;;;;;7.30;4.97;;;26.30;99.90;;;;;;5013368;28;20248;-33
2022/08/25 09:14:34;;;;;;;5.43;4.85;;;26.40;99.90;;;;;;5013196;28;20199;-35
2022/08/25 09:17:24;;;;;;;4.85;4.45;;;26.50;99.90;;;;;;5029421;28;20172;-35
2022/08/25 09:20:08;;;;;;;6.22;5.40;;;26.60;99.90;;;;;;5014292;28;20380;-33
2022/08/25 09:22:59;;;;;;;6.97;5.28;;;26.70;99.90;;;;;;5013082;28;20183;-35
2022/08/25 09:25:37;;;;;;;5.10;4.60;;;26.60;99.90;;;;;;5014192;28;20179;-35
2022/08/25 09:28:41;;;;;;;5.50;5.00;;;26.70;99.90;;;;;;5029442;28;20270;-35
2022/08/25 09:31:20;;;;;;;5.97;5.38;;;26.80;99.90;;;;;;4994535;28;20233;-33
2022/08/25 09:33:46;;;;;;;5.20;4.70;;;26.80;99.90;;;;;;5029079;28;20271;-35
2022/08/25 09:36:12;;;;;;;6.70;4.80;;;26.90;99.90;;;;;;5012675;28;20273;-33
2022/08/25 09:38:39;;;;;;;4.93;4.32;;;27.10;99.90;;;;;;5012616;28;20230;-33
2022/08/25 09:41:06;;;;;;;5.07;4.57;;;27.30;99.90;;;;;;5012587;28;20185;-33
2022/08/25 09:43:37;;;;;;;5.50;4.97;;;27.50;99.90;;;;;;5012722;28;20192;-35
2022/08/25 09:46:09;;;;;;;4.90;4.50;;;27.70;99.90;;;;;;5029010;28;20258;-33
2022/08/25 09:48:47;;;;;;;5.40;4.88;;;27.60;99.90;;;;;;5028630;28;20179;-35
2022/08/25 09:51:31;;;;;;;6.78;4.50;;;27.50;99.90;;;;;;5029061;28;20175;-33
2022/08/25 09:53:57;;;;;;;5.97;4.93;;;27.50;99.90;;;;;;5012191;28;20209;-35
2022/08/25 09:56:27;;;;;;;6.60;4.35;;;27.70;99.90;;;;;;5010980;28;20187;-36
2022/08/25 09:58:54;;;;;;;5.47;4.32;;;27.80;99.90;;;;;;5012263;28;20179;-33
2022/08/25 10:01:23;;;;;;;5.78;5.20;;;27.90;99.90;;;;;;5012221;28;20199;-35
2022/08/25 10:03:58;;;;;;;4.68;4.28;;;28.00;99.90;;;;;;5012256;28;20207;-33
2022/08/25 10:06:26;;;;;;;4.90;4.50;;;28.00;99.90;;;;;;5012260;28;20229;-34
2022/08/25 10:09:02;;;;;;;5.75;4.60;;;28.00;99.90;;;;;;5011708;28;20183;-33
2022/08/25 10:11:44;;;;;;;5.25;4.85;;;28.20;99.90;;;;;;5012460;28;20189;-33
2022/08/25 10:14:37;;;;;;;4.90;4.43;;;28.30;99.90;;;;;;5011958;28;20229;-32
2022/08/25 10:17:14;;;;;;;5.47;4.97;;;28.20;99.90;;;;;;5011528;28;20198;-34
2022/08/25 10:19:40;;;;;;;5.18;4.72;;;28.10;99.90;;;;;;5011775;28;20187;-33
2022/08/25 10:22:25;;;;;;;5.65;4.57;;;28.30;99.90;;;;;;5011840;28;20183;-33
2022/08/25 10:24:51;;;;;;;4.53;4.10;;;28.50;99.90;;;;;;5028237;28;20237;-35
2022/08/25 10:28:01;;;;;;;4.88;4.38;;;28.40;99.90;;;;;;5011447;28;20206;-35
2022/08/25 10:30:48;;;;;;;5.45;4.80;;;28.30;99.90;;;;;;5028243;28;20206;-35
2022/08/25 10:33:35;;;;;;;4.97;4.50;;;28.30;99.90;;;;;;5011657;28;20210;-35
2022/08/25 10:36:16;;;;;;;4.55;4.20;;;28.40;99.90;;;;;;5027862;28;20202;-34
2022/08/25 10:38:45;;;;;;;4.72;4.32;;;28.70;99.90;;;;;;5011268;28;20183;-33
2022/08/25 10:41:35;;;;;;;5.35;4.30;;;28.70;99.90;;;;;;5011736;28;20191;-35
2022/08/25 10:47:24;;;;;;;4.90;4.45;;;29.00;99.90;;;;;;5016327;28;20226;-33
2022/08/25 10:50:07;;;;;;;7.05;4.53;;;29.10;99.90;;;;;;5011370;28;20292;-35
2022/08/25 10:52:56;;;;;;;4.80;4.38;;;29.10;99.90;;;;;;5011199;28;20259;-33
2022/08/25 10:55:32;;;;;;;4.35;3.95;;;29.20;99.90;;;;;;5011532;28;20266;-33
2022/08/25 10:58:26;;;;;;;4.75;4.35;;;29.50;99.90;;;;;;5027632;28;20235;-33
2022/08/25 11:01:27;;;;;;;4.78;4.22;;;29.40;99.90;;;;;;5010549;28;20190;-34
2022/08/25 11:04:07;;;;;;;4.40;4.00;;;29.70;99.90;;;;;;5011249;28;20203;-33
2022/08/25 11:06:38;;;;;;;4.90;3.97;;;29.90;99.90;;;;;;5010669;28;20183;-33
2022/08/25 11:09:09;;;;;;;6.30;4.28;;;29.60;99.90;;;;;;5010900;28;20180;-33
2022/08/25 11:11:47;;;;;;;5.95;4.60;;;29.40;99.90;;;;;;5027448;28;20203;-34
2022/08/25 11:14:30;;;;;;;4.72;4.30;;;29.20;99.90;;;;;;5011044;28;20261;-33
2022/08/25 11:17:00;;;;;;;4.40;3.58;;;29.30;99.90;;;;;;5010650;28;20201;-33
2022/08/25 11:19:36;;;;;;;3.90;3.60;;;29.50;99.90;;;;;;5010714;28;20668;-35
2022/08/25 11:22:34;;;;;;;5.00;3.95;;;29.70;99.90;;;;;;5027238;28;20175;-36
2022/08/25 11:25:24;;;;;;;4.15;3.75;;;30.00;99.90;;;;;;4999114;28;20219;-35
2022/08/25 11:28:11;;;;;;;4.03;3.72;;;29.70;99.90;;;;;;5011495;28;20175;-35
2022/08/25 11:30:38;;;;;;;4.30;3.90;;;29.80;99.90;;;;;;5010376;28;20305;-38
2022/08/25 11:33:05;;;;;;;4.68;4.00;;;30.00;99.90;;;;;;5027083;28;20203;-35
2022/08/25 11:35:38;;;;;;;4.88;4.00;;;29.90;99.90;;;;;;5010779;28;20229;-35
2022/08/25 11:38:39;;;;;;;4.82;3.90;;;30.00;99.90;;;;;;5010307;28;20258;-35
2022/08/25 11:41:05;;;;;;;4.63;4.20;;;30.30;99.90;;;;;;5010477;28;20188;-35
2022/08/25 11:44:09;;;;;;;4.15;3.75;;;30.50;99.90;;;;;;5026918;28;20207;-34
2022/08/25 11:46:38;;;;;;;4.82;4.38;;;30.70;99.90;;;;;;4953441;28;20188;-34
2022/08/25 11:49:26;;;;;;;4.25;3.95;;;30.70;99.90;;;;;;4984176;28;20195;-33
2022/08/25 11:51:52;;;;;;;4.40;4.00;;;30.50;99.90;;;;;;5010398;28;20179;-34
2022/08/25 11:54:41;;;;;;;4.53;3.80;;;30.80;99.90;;;;;;5010106;28;20195;-34
2022/08/25 11:57:16;;;;;;;4.22;3.83;;;31.00;99.90;;;;;;5009865;28;20642;-34
2022/08/25 11:59:50;;;;;;;3.83;3.53;;;31.20;99.80;;;;;;5010221;28;20187;-35
2022/08/25 12:02:46;;;;;;;3.28;3.08;;;31.20;99.30;;;;;;5011077;28;20302;-33
2022/08/25 12:05:17;;;;;;;4.20;3.80;;;31.40;99.10;;;;;;5010272;28;20187;-35
2022/08/25 12:08:37;;;;;;;3.47;3.17;;;31.80;98.60;;;;;;5009858;28;20192;-34
2022/08/25 12:11:03;;;;;;;4.30;3.58;;;31.80;98.20;;;;;;5011107;28;20708;-34
2022/08/25 12:13:47;;;;;;;3.60;3.30;;;31.80;98.30;;;;;;5010064;28;20409;-35
2022/08/25 12:16:54;;;;;;;3.83;3.42;;;32.10;97.70;;;;;;5009919;28;20210;-35
2022/08/25 12:19:26;;;;;;;3.67;3.22;;;32.30;96.70;;;;;;4964398;28;20241;-34
2022/08/25 12:21:54;;;;;;;3.85;3.00;;;32.40;96.90;;;;;;4993560;28;20191;-35
2022/08/25 12:24:40;;;;;;;3.30;3.00;;;32.30;95.40;;;;;;5009644;28;20223;-34
2022/08/25 12:27:21;;;;;;;4.15;2.92;;;32.40;95.70;;;;;;4979697;28;20286;-35
2022/08/25 12:30:04;;;;;;;3.83;3.05;;;32.40;95.60;;;;;;5010030;28;20293;-34
2022/08/25 12:32:48;;;;;;;3.13;2.92;;;32.40;95.50;;;;;;5009712;28;20175;-34
2022/08/25 12:35:50;;;;;;;3.88;2.80;;;32.60;95.90;;;;;;5009833;28;20244;-35
2022/08/25 12:38:26;;;;;;;3.30;3.00;;;32.40;96.00;;;;;;5009634;28;20182;-35
2022/08/25 12:41:11;;;;;;;3.63;3.25;;;32.60;95.20;;;;;;5025913;28;20182;-33
2022/08/25 12:43:43;;;;;;;3.10;2.80;;;32.30;94.90;;;;;;5009802;28;20249;-35
2022/08/25 12:46:28;;;;;;;3.25;3.05;;;32.60;95.00;;;;;;5009707;28;20226;-34
2022/08/25 12:49:30;;;;;;;3.13;2.92;;;32.40;94.60;;;;;;5009599;28;20191;-35
2022/08/25 12:52:12;;;;;;;3.83;2.78;;;32.20;94.80;;;;;;5009474;28;20194;-33
2022/08/25 12:54:59;;;;;;;3.22;2.92;;;32.20;95.20;;;;;;5009624;28;20203;-33
2022/08/25 12:57:31;;;;;;;4.25;2.95;;;32.00;94.60;;;;;;5009287;28;20194;-35
2022/08/25 13:00:00;;;;;;;2.97;2.67;;;31.80;94.40;;;;;;5009424;28;20187;-33
2022/08/25 13:02:32;;;;;;;3.00;2.70;;;32.20;94.70;;;;;;5009508;28;20213;-36
2022/08/25 13:05:16;;;;;;;2.80;2.60;;;32.50;94.40;;;;;;5009369;28;20669;-35
2022/08/25 13:07:55;;;;;;;3.13;2.88;;;32.50;94.30;;;;;;5009173;28;20191;-34
2022/08/25 13:10:49;;;;;;;2.85;2.65;;;32.80;94.10;;;;;;5025732;28;20235;-35
2022/08/25 13:13:50;;;;;;;3.45;2.38;;;33.20;93.50;;;;;;5009486;28;20242;-36
2022/08/25 13:16:23;;;;;;;3.17;2.97;;;33.50;92.90;;;;;;5009086;28;20704;-34
2022/08/25 13:18:49;;;;;;;2.97;2.78;;;33.30;92.20;;;;;;5010298;28;20176;-33
2022/08/25 13:21:35;;;;;;;2.65;2.45;;;33.00;92.70;;;;;;5009293;28;20186;-35
2022/08/25 13:24:04;;;;;;;4.30;2.58;;;32.90;92.80;;;;;;5009551;28;20215;-36